Time;durP1;ratioP1;P1;durP2;ratioP2;P2;SDS_P1;SDS_P2;PMS_P1;PMS_P2;Temp;Humidity;BMP_temperature;BMP_pressure;BME280_temperature;BME280_humidity;BME280_pressure;Samples;Min_cycle;Max_cycle;Signal;HPM_P1;HPM_P2
2023/06/26 00:01:44;;;;;;;9.38;7.82;;;;;;;21.81;70.73;101122.16;4988314;28;20041;-68
2023/06/26 00:04:14;;;;;;;10.98;8.38;;;;;;;21.96;67.59;101115.88;4988599;28;20070;-67
2023/06/26 00:06:40;;;;;;;11.23;8.23;;;;;;;22.08;67.52;101123.63;4987973;28;20450;-67
2023/06/26 00:09:05;;;;;;;9.65;8.27;;;;;;;22.11;66.94;101112.22;4989999;28;20599;-66
2023/06/26 00:11:33;;;;;;;13.93;8.48;;;;;;;22.15;66.42;101113.59;5003686;28;20057;-67
2023/06/26 00:14:00;;;;;;;9.65;8.40;;;;;;;22.20;66.13;101114.97;4988271;28;20041;-67
2023/06/26 00:16:26;;;;;;;15.52;8.50;;;;;;;22.14;67.35;101111.84;4988405;28;20042;-67
2023/06/26 00:18:51;;;;;;;10.70;8.27;;;;;;;22.15;67.49;101113.59;4987809;28;20832;-66
2023/06/26 00:21:16;;;;;;;11.60;8.45;;;;;;;22.15;66.83;101113.59;4987772;28;20125;-68
2023/06/26 00:23:42;;;;;;;11.95;8.27;;;;;;;22.11;67.49;101111.34;5007498;28;20470;-67
2023/06/26 00:26:09;;;;;;;10.00;8.38;;;;;;;22.12;67.11;101107.53;5006226;28;20038;-67
2023/06/26 00:28:34;;;;;;;10.25;7.97;;;;;;;22.12;67.78;101110.31;5003933;28;20045;-67
2023/06/26 00:30:59;;;;;;;16.80;8.85;;;;;;;22.11;67.34;101117.78;5002686;28;20049;-68
2023/06/26 00:33:28;;;;;;;11.23;8.57;;;;;;;22.08;67.68;101114.44;5002549;28;20503;-67
2023/06/26 00:35:53;;;;;;;12.82;8.82;;;;;;;22.08;66.92;101101.47;5002736;28;20106;-67
2023/06/26 00:38:19;;;;;;;11.38;9.32;;;;;;;22.05;66.74;101109.25;5001749;28;20421;-67
2023/06/26 00:40:44;;;;;;;13.10;9.68;;;;;;;22.02;66.79;101104.97;5001783;28;20045;-68
2023/06/26 00:43:10;;;;;;;8.88;7.97;;;;;;;22.00;67.00;101107.03;4986726;28;20036;-65
2023/06/26 00:45:35;;;;;;;11.30;9.10;;;;;;;21.99;66.57;101107.22;4984273;28;20125;-67
2023/06/26 00:48:02;;;;;;;13.43;8.77;;;;;;;22.00;66.84;101117.25;4986764;28;20145;-67
2023/06/26 00:50:28;;;;;;;12.77;9.20;;;;;;;21.96;67.38;101121.41;4985179;28;20034;-68
2023/06/26 00:52:56;;;;;;;9.85;8.70;;;;;;;21.95;67.04;101117.78;4991101;28;20470;-67
2023/06/26 00:55:22;;;;;;;13.38;9.25;;;;;;;21.94;66.78;101110.53;5006216;28;20037;-66
2023/06/26 00:57:48;;;;;;;14.75;9.75;;;;;;;21.90;66.80;101118.31;4992679;28;20038;-67
2023/06/26 01:00:14;;;;;;;9.95;7.97;;;;;;;21.93;67.25;101119.03;4987749;28;20453;-67
2023/06/26 01:02:39;;;;;;;11.05;8.38;;;;;;;21.89;66.79;101116.59;4988107;28;20451;-68
2023/06/26 01:05:06;;;;;;;12.40;8.68;;;;;;;21.86;67.42;101129.94;4987683;28;20044;-68
2023/06/26 01:07:36;;;;;;;13.27;8.88;;;;;;;21.82;67.10;101120.25;5005565;28;20081;-67
2023/06/26 01:10:06;;;;;;;12.73;8.88;;;;;;;21.76;66.87;101124.59;4988762;28;20048;-66
2023/06/26 01:12:33;;;;;;;12.30;8.73;;;;;;;21.77;66.92;101122.69;4991141;28;20038;-67
2023/06/26 01:14:59;;;;;;;13.80;8.68;;;;;;;21.74;67.83;101129.47;4991908;28;20030;-67
2023/06/26 01:17:31;;;;;;;15.40;8.57;;;;;;;21.75;67.09;101139.50;4990855;28;20089;-67
2023/06/26 01:19:58;;;;;;;16.40;8.70;;;;;;;21.64;67.84;101128.81;4990877;28;20050;-66
2023/06/26 01:22:45;;;;;;;11.30;8.43;;;;;;;21.58;67.29;101135.03;4990388;28;20106;-67
2023/06/26 01:25:38;;;;;;;9.25;7.75;;;;;;;21.57;67.34;101150.78;4991169;28;20390;-66
2023/06/26 01:28:05;;;;;;;11.65;7.97;;;;;;;21.51;67.13;101139.56;4990726;28;20414;-68
2023/06/26 01:30:32;;;;;;;11.98;7.20;;;;;;;21.44;67.34;101144.03;4991563;28;20026;-66
2023/06/26 01:32:59;;;;;;;9.73;7.35;;;;;;;21.42;67.60;101147.00;4990791;28;20050;-66
2023/06/26 01:35:26;;;;;;;11.20;7.57;;;;;;;21.35;68.49;101141.28;4990526;28;20100;-66
2023/06/26 01:37:51;;;;;;;11.98;6.63;;;;;;;21.30;67.67;101143.66;5005615;28;20038;-65
2023/06/26 01:40:17;;;;;;;12.70;6.68;;;;;;;21.27;68.44;101140.41;4989923;28;20108;-67
2023/06/26 01:42:42;;;;;;;11.00;6.90;;;;;;;21.26;67.75;101147.81;4991188;28;20448;-66
2023/06/26 01:45:26;;;;;;;9.35;6.80;;;;;;;21.22;67.41;101157.53;4990875;28;20458;-68
2023/06/26 01:47:53;;;;;;;14.48;6.50;;;;;;;21.17;67.78;101161.84;5007957;28;20446;-65
2023/06/26 01:50:28;;;;;;;8.07;6.10;;;;;;;21.11;67.90;101163.41;5008893;28;20053;-67
2023/06/26 01:53:16;;;;;;;11.88;6.28;;;;;;;21.07;67.96;101173.94;5006853;28;20501;-66
2023/06/26 01:55:49;;;;;;;8.70;6.22;;;;;;;21.01;67.88;101162.69;5009373;28;20450;-67
2023/06/26 01:58:17;;;;;;;12.35;6.18;;;;;;;20.97;67.82;101170.47;5006344;28;20029;-68
2023/06/26 02:00:42;;;;;;;8.65;5.10;;;;;;;20.95;66.80;101174.47;5007158;28;20040;-66
2023/06/26 02:03:08;;;;;;;8.20;5.25;;;;;;;20.88;67.79;101172.34;5008034;28;20144;-67
2023/06/26 02:05:33;;;;;;;9.25;5.32;;;;;;;20.86;67.86;101179.09;5006917;28;20698;-67
2023/06/26 02:08:01;;;;;;;7.05;4.88;;;;;;;20.84;67.13;101173.75;5007021;28;20113;-66
2023/06/26 02:10:29;;;;;;;7.07;4.22;;;;;;;20.81;67.21;101171.31;5006531;28;20033;-65
2023/06/26 02:12:55;;;;;;;10.13;5.07;;;;;;;20.77;67.58;101171.84;4995586;28;20042;-66
2023/06/26 02:15:21;;;;;;;8.82;4.95;;;;;;;20.73;67.55;101173.19;5007614;28;20367;-68
2023/06/26 02:17:48;;;;;;;8.70;4.43;;;;;;;20.70;67.13;101168.88;4990073;28;20447;-66
2023/06/26 02:20:14;;;;;;;10.23;5.20;;;;;;;20.67;68.06;101171.13;5005005;28;20058;-67
2023/06/26 02:22:39;;;;;;;10.50;5.28;;;;;;;20.61;68.35;101167.09;5004693;28;20046;-66
2023/06/26 02:25:08;;;;;;;7.93;4.70;;;;;;;20.63;67.97;101167.81;5004026;28;20025;-67
2023/06/26 02:27:34;;;;;;;9.52;4.82;;;;;;;20.61;67.98;101165.25;5004045;28;20129;-66
2023/06/26 02:29:59;;;;;;;8.93;5.22;;;;;;;20.58;68.54;101165.56;4993225;28;20129;-66
2023/06/26 02:32:24;;;;;;;9.35;5.43;;;;;;;20.52;68.77;101169.00;4989583;28;20878;-66
2023/06/26 02:34:53;;;;;;;11.30;5.05;;;;;;;20.52;68.74;101174.53;4989812;28;20423;-66
2023/06/26 02:37:19;;;;;;;8.25;5.55;;;;;;;20.48;69.64;101173.16;4988810;28;20034;-66
2023/06/26 02:39:45;;;;;;;11.00;6.05;;;;;;;20.45;69.46;101180.88;5003546;28;20034;-67
2023/06/26 02:42:11;;;;;;;9.70;5.70;;;;;;;20.36;69.48;101188.25;4988187;28;20033;-66
2023/06/26 02:44:37;;;;;;;8.85;6.00;;;;;;;20.35;69.95;101189.28;4987766;28;20418;-67
2023/06/26 02:47:03;;;;;;;10.57;5.75;;;;;;;20.29;70.40;101196.34;5004076;28;20042;-66
2023/06/26 02:49:28;;;;;;;8.57;5.60;;;;;;;20.26;69.06;101191.16;5003642;28;20449;-65
2023/06/26 02:51:54;;;;;;;7.80;4.70;;;;;;;20.23;70.44;101190.59;4988647;28;20126;-66
2023/06/26 02:54:24;;;;;;;8.23;5.38;;;;;;;20.18;70.35;101198.53;5003579;28;20096;-66
2023/06/26 02:56:53;;;;;;;9.63;5.63;;;;;;;20.05;70.66;101210.91;4987380;28;20065;-67
2023/06/26 02:59:23;;;;;;;7.00;4.78;;;;;;;20.03;70.53;101212.09;5004431;28;20033;-67
2023/06/26 03:01:50;;;;;;;7.45;4.85;;;;;;;20.01;70.24;101214.16;5004006;28;20097;-66
2023/06/26 03:04:17;;;;;;;8.93;5.38;;;;;;;19.98;69.91;101214.50;5004099;28;20432;-66
2023/06/26 03:06:43;;;;;;;9.65;5.30;;;;;;;19.97;70.63;101215.53;4988669;28;20101;-66
2023/06/26 03:09:08;;;;;;;10.68;5.18;;;;;;;19.90;71.08;101220.81;5004124;28;20034;-67
2023/06/26 03:11:35;;;;;;;11.00;4.63;;;;;;;19.83;71.30;101220.59;5003663;28;20524;-66
2023/06/26 03:14:00;;;;;;;10.00;5.13;;;;;;;19.82;70.54;101227.16;5003702;28;20026;-67
2023/06/26 03:16:26;;;;;;;9.25;4.25;;;;;;;19.80;70.78;101223.69;4988854;28;20529;-66
2023/06/26 03:18:51;;;;;;;8.57;4.65;;;;;;;19.74;71.44;101221.59;5006542;28;20572;-67
2023/06/26 03:21:17;;;;;;;9.40;5.20;;;;;;;19.72;71.61;101222.75;5008054;28;20051;-65
2023/06/26 03:23:43;;;;;;;9.25;4.20;;;;;;;19.69;71.02;101225.84;5006709;28;20405;-66
2023/06/26 03:26:08;;;;;;;11.45;4.57;;;;;;;19.68;71.25;101224.09;4986886;28;20404;-66
2023/06/26 03:28:36;;;;;;;11.02;4.78;;;;;;;19.61;72.01;101222.00;4986462;28;20117;-67
2023/06/26 03:31:01;;;;;;;8.00;4.50;;;;;;;19.53;72.08;101221.88;5003390;28;20121;-66
2023/06/26 03:33:27;;;;;;;9.27;4.80;;;;;;;19.49;72.63;101220.50;5003103;28;20490;-67
2023/06/26 03:35:53;;;;;;;9.70;4.40;;;;;;;19.51;72.12;101212.06;5003069;28;20422;-66
2023/06/26 03:38:19;;;;;;;7.43;4.53;;;;;;;19.53;72.04;101218.25;4986485;28;20100;-67
2023/06/26 03:40:45;;;;;;;9.13;4.35;;;;;;;19.54;72.51;101207.09;4985802;28;20093;-67
2023/06/26 03:43:11;;;;;;;10.55;4.35;;;;;;;19.54;72.62;101209.84;5002299;28;20033;-66
2023/06/26 03:45:57;;;;;;;9.73;4.95;;;;;;;19.57;72.86;101225.19;4986703;28;20034;-66
2023/06/26 03:48:24;;;;;;;10.57;5.20;;;;;;;19.53;74.16;101227.41;4986427;28;20033;-66
2023/06/26 03:50:51;;;;;;;9.32;4.97;;;;;;;19.46;74.58;101223.56;4987834;28;20026;-67
2023/06/26 03:53:16;;;;;;;9.00;4.80;;;;;;;19.42;75.47;101224.91;4986261;28;20073;-67
2023/06/26 03:55:41;;;;;;;11.77;5.43;;;;;;;19.38;75.73;101229.00;4987870;28;20038;-67
2023/06/26 03:58:07;;;;;;;15.02;5.40;;;;;;;19.40;74.61;101231.59;4988068;28;20073;-66
2023/06/26 04:00:32;;;;;;;11.93;4.82;;;;;;;19.43;75.64;101237.69;5002617;28;20046;-66
2023/06/26 04:02:57;;;;;;;13.95;5.60;;;;;;;19.43;76.63;101245.97;4987848;28;20117;-66
2023/06/26 04:05:23;;;;;;;16.10;4.95;;;;;;;19.41;76.58;101237.00;4986213;28;20080;-66
2023/06/26 04:07:51;;;;;;;13.23;5.35;;;;;;;19.41;76.26;101248.03;4985733;28;20509;-66
2023/06/26 04:10:16;;;;;;;15.43;6.22;;;;;;;19.43;76.51;101250.63;5002063;28;20484;-67
2023/06/26 04:12:41;;;;;;;8.27;4.53;;;;;;;19.47;75.38;101265.84;5002790;28;20030;-67
2023/06/26 04:15:07;;;;;;;13.75;5.30;;;;;;;19.45;77.19;101266.00;4988362;28;20034;-66
2023/06/26 04:17:32;;;;;;;12.70;5.13;;;;;;;19.42;77.68;101268.19;4987605;28;20084;-66
2023/06/26 04:19:58;;;;;;;10.00;4.82;;;;;;;19.46;77.84;101266.88;4988120;28;20042;-66
2023/06/26 04:22:23;;;;;;;16.52;5.30;;;;;;;19.49;77.83;101272.03;4987026;28;20034;-66
2023/06/26 04:24:49;;;;;;;10.55;4.88;;;;;;;19.55;77.68;101269.53;4987325;28;20037;-66
2023/06/26 04:27:14;;;;;;;14.88;5.10;;;;;;;19.59;76.68;101275.63;4986972;28;20042;-66
2023/06/26 04:29:39;;;;;;;10.15;5.30;;;;;;;19.63;78.29;101271.50;4988196;28;20096;-66
2023/06/26 04:32:06;;;;;;;12.75;5.07;;;;;;;19.74;77.90;101275.94;4987412;28;20142;-66
2023/06/26 04:34:34;;;;;;;13.15;5.63;;;;;;;19.81;77.11;101280.63;4986730;28;20038;-66
2023/06/26 04:36:59;;;;;;;16.00;5.35;;;;;;;19.86;78.03;101277.38;5000676;28;20141;-66
2023/06/26 04:39:25;;;;;;;12.18;5.78;;;;;;;19.85;78.02;101282.06;4988557;28;20120;-66
2023/06/26 04:41:50;;;;;;;12.82;5.55;;;;;;;19.82;79.40;101290.69;4989592;28;20022;-67
2023/06/26 04:44:15;;;;;;;16.70;5.60;;;;;;;19.87;77.67;101284.69;4992128;28;20095;-67
2023/06/26 04:46:41;;;;;;;12.25;5.60;;;;;;;19.86;79.96;101288.44;4991903;28;20068;-66
2023/06/26 04:49:10;;;;;;;16.10;5.53;;;;;;;19.84;78.95;101277.56;5006015;28;20062;-66
2023/06/26 04:51:42;;;;;;;14.57;5.45;;;;;;;19.87;78.74;101293.81;4989408;28;20035;-66
2023/06/26 04:54:08;;;;;;;10.48;5.65;;;;;;;19.93;78.91;101297.81;4991473;28;20034;-66
2023/06/26 04:56:35;;;;;;;17.45;6.25;;;;;;;19.98;79.63;101305.63;4991615;28;20563;-67
2023/06/26 04:59:00;;;;;;;13.70;5.90;;;;;;;19.98;79.03;101302.88;5006186;28;20431;-65
2023/06/26 05:01:28;;;;;;;12.43;5.65;;;;;;;20.01;79.30;101306.19;4991509;28;20042;-66
2023/06/26 05:03:54;;;;;;;15.52;5.43;;;;;;;20.00;78.99;101304.41;4994077;28;20022;-67
2023/06/26 05:06:19;;;;;;;14.38;5.82;;;;;;;20.00;78.07;101301.66;5010478;28;20060;-66
2023/06/26 05:08:44;;;;;;;13.75;6.22;;;;;;;19.98;78.70;101303.72;5009594;28;20041;-66
2023/06/26 05:11:10;;;;;;;17.83;5.97;;;;;;;19.95;79.53;101320.63;5010274;28;20125;-66
2023/06/26 05:13:35;;;;;;;16.13;7.10;;;;;;;19.96;79.59;101321.47;4992123;28;20034;-66
2023/06/26 05:16:00;;;;;;;18.90;6.00;;;;;;;19.94;79.57;101320.78;4990968;28;20028;-66
2023/06/26 05:18:26;;;;;;;19.48;5.97;;;;;;;19.99;78.94;101326.69;5006073;28;20399;-67
2023/06/26 05:20:51;;;;;;;15.00;5.72;;;;;;;20.02;79.08;101331.91;4991281;28;20489;-66
2023/06/26 05:23:17;;;;;;;16.38;5.43;;;;;;;20.06;79.39;101328.66;4990439;28;20398;-67
2023/06/26 05:25:42;;;;;;;14.10;5.28;;;;;;;20.21;77.72;101328.94;4990615;28;20474;-66
2023/06/26 05:28:10;;;;;;;13.82;6.20;;;;;;;20.19;78.60;101328.25;4991094;28;20497;-65
2023/06/26 05:30:36;;;;;;;19.25;6.25;;;;;;;20.14;79.50;101330.59;4997072;28;20559;-67
2023/06/26 05:33:03;;;;;;;16.00;5.72;;;;;;;20.06;79.07;101327.78;5010447;28;20129;-67
2023/06/26 05:35:32;;;;;;;18.52;5.90;;;;;;;20.08;78.71;101342.31;4991602;28;20473;-66
2023/06/26 05:37:58;;;;;;;14.68;5.45;;;;;;;20.17;78.37;101335.81;5000869;28;20038;-67
2023/06/26 05:40:24;;;;;;;16.35;5.63;;;;;;;20.22;77.83;101340.84;5007900;28;20060;-66
2023/06/26 05:42:50;;;;;;;13.10;4.40;;;;;;;20.26;77.08;101345.03;5009684;28;20125;-66
2023/06/26 05:45:16;;;;;;;18.45;5.25;;;;;;;20.25;77.81;101344.16;5009609;28;20117;-66
2023/06/26 05:47:42;;;;;;;17.40;5.15;;;;;;;20.30;76.19;101354.72;5006765;28;20030;-66
2023/06/26 05:50:09;;;;;;;22.45;4.60;;;;;;;20.28;75.95;101356.78;4990456;28;20441;-67
2023/06/26 05:52:35;;;;;;;11.63;4.65;;;;;;;20.32;76.14;101370.09;4995171;28;20033;-66
2023/06/26 05:55:02;;;;;;;14.57;4.40;;;;;;;20.36;75.22;101367.88;5009429;28;20042;-66
2023/06/26 05:57:29;;;;;;;10.63;4.40;;;;;;;20.32;75.86;101367.34;4999256;28;20018;-66
2023/06/26 05:59:55;;;;;;;14.18;5.00;;;;;;;20.24;75.34;101371.97;4990768;28;20034;-66
2023/06/26 06:02:20;;;;;;;15.30;5.00;;;;;;;20.20;76.31;101368.66;4990423;28;20493;-66
2023/06/26 06:04:46;;;;;;;17.75;4.50;;;;;;;20.18;75.84;101369.81;4990738;28;20026;-66
2023/06/26 06:07:11;;;;;;;14.32;4.15;;;;;;;20.22;75.65;101374.88;4988788;28;20483;-65
2023/06/26 06:09:37;;;;;;;16.30;4.70;;;;;;;20.29;75.78;101380.63;4998136;28;20069;-65
2023/06/26 06:12:05;;;;;;;15.90;4.78;;;;;;;20.26;76.05;101389.25;4992216;28;20037;-67
2023/06/26 06:14:31;;;;;;;12.52;4.70;;;;;;;20.22;74.76;101388.69;4989630;28;20042;-69
2023/06/26 06:16:56;;;;;;;12.07;3.72;;;;;;;20.21;75.57;101386.97;5004605;28;20398;-66
2023/06/26 06:19:22;;;;;;;9.98;3.63;;;;;;;20.23;73.74;101397.84;4990027;28;20022;-69
2023/06/26 06:21:48;;;;;;;15.23;3.33;;;;;;;20.26;74.33;101401.16;4988801;28;20038;-68
2023/06/26 06:24:13;;;;;;;15.30;3.80;;;;;;;20.28;73.76;101401.84;4990155;28;20042;-66
2023/06/26 06:26:39;;;;;;;14.05;3.00;;;;;;;20.34;73.03;101405.88;4990133;28;20049;-67
2023/06/26 06:29:04;;;;;;;8.23;3.13;;;;;;;20.43;72.39;101404.06;4995326;28;20079;-67
2023/06/26 06:31:29;;;;;;;14.38;3.45;;;;;;;20.45;72.08;101410.28;5009574;28;20119;-67
2023/06/26 06:33:55;;;;;;;17.08;3.70;;;;;;;20.47;72.25;101394.38;5009607;28;20050;-68
2023/06/26 06:36:20;;;;;;;10.73;3.95;;;;;;;20.54;71.82;101393.63;5008892;28;20460;-66
2023/06/26 06:38:46;;;;;;;11.88;3.97;;;;;;;20.57;71.56;101406.25;4994546;28;20026;-67
2023/06/26 06:41:12;;;;;;;12.32;3.80;;;;;;;20.48;72.16;101410.00;4989443;28;20527;-67
2023/06/26 06:43:37;;;;;;;13.68;3.63;;;;;;;;;;5004770;28;20045;-66
2023/06/26 06:46:03;;;;;;;13.23;3.88;;;;;;;20.67;72.35;101425.50;4989425;28;20030;-67
2023/06/26 06:48:28;;;;;;;14.40;3.50;;;;;;;20.77;71.04;101437.31;4998978;28;20030;-67
2023/06/26 06:50:54;;;;;;;11.32;3.55;;;;;;;21.00;71.65;101438.50;4994574;28;20077;-67
2023/06/26 06:53:22;;;;;;;5.88;2.67;;;;;;;21.24;69.39;101432.19;4988749;28;20489;-66
2023/06/26 06:55:50;;;;;;;8.50;3.10;;;;;;;21.40;69.54;101436.97;4988258;28;20042;-67
2023/06/26 06:58:19;;;;;;;10.45;3.13;;;;;;;21.46;69.38;101438.22;4988048;28;20125;-67
2023/06/26 07:00:45;;;;;;;10.93;3.10;;;;;;;21.49;69.84;101437.84;4988935;28;20125;-67
2023/06/26 07:03:10;;;;;;;13.98;3.00;;;;;;;21.63;69.37;101451.06;4988929;28;20113;-67
2023/06/26 07:05:36;;;;;;;8.50;2.90;;;;;;;21.82;68.89;101460.97;5003663;28;20631;-70
2023/06/26 07:08:02;;;;;;;12.13;3.72;;;;;;;21.88;68.31;101458.41;4987123;28;20038;-67
2023/06/26 07:10:28;;;;;;;8.20;3.30;;;;;;;22.01;66.90;101462.56;4988342;28;20030;-66
2023/06/26 07:12:53;;;;;;;12.05;3.55;;;;;;;22.10;66.58;101451.34;5003749;28;20548;-67
2023/06/26 07:15:19;;;;;;;8.98;2.78;;;;;;;22.08;67.02;101458.09;5004093;28;20406;-67
2023/06/26 07:17:44;;;;;;;11.23;3.00;;;;;;;22.21;66.84;101458.47;5003564;28;20042;-67
2023/06/26 07:20:15;;;;;;;12.02;3.30;;;;;;;22.26;65.94;101458.84;4989021;28;20084;-67
2023/06/26 07:22:40;;;;;;;10.77;3.33;;;;;;;22.47;66.77;101472.16;4987224;28;20454;-67
2023/06/26 07:25:09;;;;;;;8.80;3.30;;;;;;;22.58;65.64;101484.84;4988356;28;20129;-67
2023/06/26 07:27:34;;;;;;;9.27;3.45;;;;;;;22.66;66.02;101474.59;5002990;28;20133;-67
2023/06/26 07:30:00;;;;;;;10.95;3.58;;;;;;;22.57;65.84;101475.66;4989142;28;20447;-66
2023/06/26 07:32:25;;;;;;;5.53;3.35;;;;;;;22.42;65.79;101477.38;5003520;28;20046;-66
2023/06/26 07:34:50;;;;;;;11.63;4.47;;;;;;;22.27;65.93;101493.81;4988859;28;20125;-66
2023/06/26 07:37:16;;;;;;;8.77;3.00;;;;;;;22.21;66.78;101497.28;4987544;28;20560;-66
2023/06/26 07:39:41;;;;;;;6.70;3.42;;;;;;;22.09;65.98;101495.84;4988493;28;20038;-67
2023/06/26 07:42:06;;;;;;;12.18;3.67;;;;;;;22.27;66.68;101499.38;4988829;28;20118;-67
2023/06/26 07:44:32;;;;;;;9.45;3.40;;;;;;;22.41;66.37;101512.53;4988661;28;20073;-68
2023/06/26 07:46:57;;;;;;;6.53;3.53;;;;;;;22.34;64.87;101517.06;4988052;28;20036;-67
2023/06/26 07:49:23;;;;;;;8.48;4.15;;;;;;;22.25;63.14;101508.91;4991719;28;20034;-66
2023/06/26 07:51:48;;;;;;;7.22;3.63;;;;;;;22.35;65.59;101509.59;5005570;28;20045;-68
2023/06/26 07:54:13;;;;;;;8.18;4.45;;;;;;;22.45;63.68;101521.41;5002689;28;20081;-72
2023/06/26 07:56:56;;;;;;;7.57;4.03;;;;;;;22.67;63.32;101517.06;4988395;28;20034;-67
2023/06/26 07:59:23;;;;;;;6.25;3.63;;;;;;;22.73;62.23;101527.47;4988048;28;20042;-67
2023/06/26 08:01:50;;;;;;;4.45;2.67;;;;;;;22.81;60.19;101530.25;4988255;28;20557;-67
2023/06/26 08:04:15;;;;;;;6.00;2.50;;;;;;;22.80;60.24;101531.28;5003220;28;20046;-67
2023/06/26 08:06:41;;;;;;;6.82;2.20;;;;;;;22.75;61.96;101524.50;4987784;28;20056;-67
2023/06/26 08:09:07;;;;;;;6.22;1.95;;;;;;;22.71;61.09;101524.00;5002243;28;20042;-67
2023/06/26 08:11:33;;;;;;;4.40;1.90;;;;;;;22.62;60.22;101525.06;4987859;28;20069;-66
2023/06/26 08:13:58;;;;;;;5.38;2.25;;;;;;;22.33;60.74;101534.72;4987962;28;20367;-67
2023/06/26 08:16:24;;;;;;;6.50;2.33;;;;;;;22.22;62.04;101528.66;4988092;28;20056;-67
2023/06/26 08:18:49;;;;;;;5.63;1.88;;;;;;;22.51;63.87;101534.56;5002936;28;20113;-68
2023/06/26 08:21:15;;;;;;;7.30;2.47;;;;;;;22.53;62.45;101526.09;4987103;28;20042;-69
2023/06/26 08:23:40;;;;;;;6.93;2.13;;;;;;;22.62;62.19;101533.38;4988467;28;20057;-68
2023/06/26 08:26:05;;;;;;;7.30;2.20;;;;;;;23.00;60.41;101537.38;4987433;28;20414;-67
2023/06/26 08:28:31;;;;;;;6.65;1.75;;;;;;;23.41;59.24;101529.81;5003046;28;20030;-68
2023/06/26 08:30:56;;;;;;;10.77;2.08;;;;;;;24.00;57.48;101529.38;4987581;28;20026;-66
2023/06/26 08:33:21;;;;;;;8.02;2.33;;;;;;;24.49;55.68;101540.25;4987686;28;20112;-68
2023/06/26 08:35:47;;;;;;;8.70;1.50;;;;;;;24.73;54.28;101539.16;4987493;28;20445;-67
2023/06/26 08:38:12;;;;;;;6.60;1.70;;;;;;;24.64;50.44;101545.84;4995819;28;20046;-68
2023/06/26 08:40:38;;;;;;;14.43;2.08;;;;;;;24.72;51.97;101542.16;4987287;28;20050;-67
2023/06/26 08:43:04;;;;;;;5.88;1.38;;;;;;;24.71;50.05;101543.19;5000302;28;20054;-66
2023/06/26 08:45:29;;;;;;;6.85;1.65;;;;;;;25.24;51.97;101555.25;4985494;28;20042;-67
2023/06/26 08:48:00;;;;;;;5.63;1.50;;;;;;;25.37;51.17;101550.75;4992565;28;20482;-66
2023/06/26 08:50:29;;;;;;;5.60;1.27;;;;;;;25.58;49.18;101540.75;4995120;28;20067;-66
2023/06/26 08:53:07;;;;;;;2.28;1.17;;;;;;;25.90;51.19;101562.66;4987028;28;20058;-66
2023/06/26 08:55:38;;;;;;;3.75;1.25;;;;;;;26.20;48.63;101569.03;5018898;28;20045;-67
2023/06/26 08:58:04;;;;;;;8.27;1.40;;;;;;;26.55;48.63;101574.00;4993227;28;20560;-68
2023/06/26 09:00:30;;;;;;;5.80;1.85;;;;;;;26.29;46.67;101563.34;5003856;28;20126;-67
2023/06/26 09:02:56;;;;;;;15.70;1.48;;;;;;;26.38;47.38;101560.25;5007137;28;20065;-69
2023/06/26 09:05:21;;;;;;;6.07;1.50;;;;;;;26.56;45.75;101558.97;5005398;28;20045;-68
2023/06/26 09:07:47;;;;;;;5.97;1.50;;;;;;;26.89;48.89;101571.31;5006402;28;20029;-68
2023/06/26 09:10:12;;;;;;;11.30;1.50;;;;;;;27.03;44.47;101566.69;4992210;28;20046;-68
2023/06/26 09:12:38;;;;;;;3.80;1.35;;;;;;;26.76;43.75;101575.91;4996597;28;20029;-67
2023/06/26 09:15:05;;;;;;;7.15;1.70;;;;;;;26.56;42.86;101578.50;4993572;28;20046;-66
2023/06/26 09:17:39;;;;;;;7.10;1.33;;;;;;;26.40;42.93;101566.50;4988040;28;20034;-68
2023/06/26 09:20:05;;;;;;;3.65;1.25;;;;;;;26.63;46.71;101582.25;4987029;28;20486;-67
2023/06/26 09:22:36;;;;;;;51.30;3.20;;;;;;;26.59;44.64;101576.19;4987062;28;20054;-67
2023/06/26 09:25:02;;;;;;;2.78;1.25;;;;;;;26.18;43.25;101576.75;4987024;28;20502;-66
2023/06/26 09:27:27;;;;;;;11.23;1.58;;;;;;;26.52;46.17;101575.22;4989800;28;20508;-68
2023/06/26 09:29:53;;;;;;;33.35;3.47;;;;;;;26.69;43.17;101579.50;4990671;28;20046;-70
2023/06/26 09:32:18;;;;;;;8.50;1.30;;;;;;;26.90;44.62;101586.13;4991100;28;20398;-68
2023/06/26 09:34:44;;;;;;;4.82;1.38;;;;;;;27.21;43.28;101585.81;4991576;28;20042;-70
2023/06/26 09:37:12;;;;;;;5.13;1.50;;;;;;;27.19;43.66;101599.97;4990557;28;20054;-67
2023/06/26 09:39:37;;;;;;;4.85;1.20;;;;;;;27.44;42.10;101594.78;4990304;28;20493;-68
2023/06/26 09:42:04;;;;;;;2.53;1.23;;;;;;;27.95;43.64;101602.88;4990867;28;20356;-69
2023/06/26 09:44:31;;;;;;;10.00;1.40;;;;;;;27.79;41.55;101603.19;4991130;28;20677;-67
2023/06/26 09:46:57;;;;;;;4.40;1.30;;;;;;;27.75;41.14;101609.44;5005754;28;20133;-68
2023/06/26 09:49:23;;;;;;;5.47;1.60;;;;;;;27.56;40.56;101620.25;4990776;28;20066;-67
2023/06/26 09:51:50;;;;;;;2.85;1.00;;;;;;;27.64;39.50;101617.28;5005258;28;20026;-67
2023/06/26 09:54:17;;;;;;;6.72;1.30;;;;;;;27.46;40.10;101617.78;4990350;28;20066;-66
2023/06/26 09:56:43;;;;;;;6.03;1.20;;;;;;;27.58;41.42;101615.31;5005859;28;20556;-67
2023/06/26 09:59:09;;;;;;;2.35;1.10;;;;;;;27.76;42.26;101613.97;4991150;28;20050;-67
2023/06/26 10:01:41;;;;;;;6.47;1.60;;;;;;;27.99;40.82;101608.94;4988944;28;20220;-68
2023/06/26 10:04:06;;;;;;;4.78;1.13;;;;;;;28.20;39.06;101597.59;4990413;28;20054;-67
2023/06/26 10:06:35;;;;;;;5.90;1.10;;;;;;;28.24;40.58;101623.25;4989626;28;20129;-67
2023/06/26 10:09:02;;;;;;;7.80;1.60;;;;;;;28.15;40.14;101627.28;5004733;28;20506;-67
2023/06/26 10:11:37;;;;;;;4.45;1.00;;;;;;;28.21;40.44;101632.03;4990034;28;20042;-68
2023/06/26 10:14:06;;;;;;;3.75;1.17;;;;;;;28.31;38.21;101628.88;4990062;28;20038;-67
2023/06/26 10:16:34;;;;;;;4.20;1.33;;;;;;;28.63;37.81;101636.56;4989983;28;20125;-66
2023/06/26 10:19:02;;;;;;;4.40;1.13;;;;;;;29.02;36.91;101631.28;5004921;28;20030;-67
2023/06/26 10:21:30;;;;;;;2.35;1.17;;;;;;;29.01;36.36;101640.75;4989541;28;20398;-68
2023/06/26 10:23:56;;;;;;;3.58;0.90;;;;;;;29.16;34.90;101631.06;4990410;28;20116;-68
2023/06/26 10:26:24;;;;;;;6.25;1.25;;;;;;;29.19;36.74;101632.56;4988371;28;20461;-67
2023/06/26 10:28:52;;;;;;;5.47;0.93;;;;;;;29.21;34.56;101628.47;5005604;28;20072;-66
2023/06/26 10:31:26;;;;;;;1.38;0.80;;;;;;;29.32;36.45;101635.38;4989776;28;20034;-66
2023/06/26 10:33:52;;;;;;;2.65;1.20;;;;;;;28.80;34.56;101625.81;4989879;28;20042;-67
2023/06/26 10:36:21;;;;;;;6.10;1.00;;;;;;;28.40;36.47;101647.25;5004367;28;20054;-67
2023/06/26 10:38:55;;;;;;;2.90;1.10;;;;;;;28.67;36.76;101640.63;4989516;28;20061;-67
2023/06/26 10:41:24;;;;;;;5.18;1.20;;;;;;;29.09;36.60;101640.53;4989442;28;20509;-66
2023/06/26 10:44:16;;;;;;;5.22;1.30;;;;;;;29.09;35.68;101644.19;4989977;28;20088;-69
2023/06/26 10:46:52;;;;;;;4.10;1.05;;;;;;;28.79;37.66;101660.50;4989908;28;20091;-66
2023/06/26 10:49:20;;;;;;;3.25;1.00;;;;;;;28.12;34.99;101659.38;5003964;28;20561;-67
2023/06/26 10:51:49;;;;;;;6.85;1.30;;;;;;;27.68;35.09;101660.53;4988676;28;20053;-68
2023/06/26 10:54:19;;;;;;;5.32;1.27;;;;;;;27.75;36.83;101657.00;4988988;28;20050;-67
2023/06/26 10:56:57;;;;;;;6.50;1.20;;;;;;;27.89;36.28;101656.88;4988758;28;20074;-68
2023/06/26 10:59:27;;;;;;;3.40;1.15;;;;;;;28.38;35.64;101646.59;4990048;28;20031;-67
2023/06/26 11:02:04;;;;;;;2.97;1.02;;;;;;;28.27;35.41;101655.56;4989298;28;20038;-66
2023/06/26 11:04:47;;;;;;;3.85;1.27;;;;;;;27.80;36.56;101674.00;4989252;28;20450;-68
2023/06/26 11:07:18;;;;;;;3.30;1.13;;;;;;;27.45;36.93;101676.72;4988949;28;20042;-66
2023/06/26 11:10:01;;;;;;;4.55;1.30;;;;;;;27.63;38.61;101687.41;4988740;28;20045;-68
2023/06/26 11:12:43;;;;;;;3.33;1.25;;;;;;;27.06;38.09;101669.66;4989236;28;20046;-67
2023/06/26 11:15:09;;;;;;;;;;;;;;;27.49;39.30;101666.84;4994667;28;20045;-68
2023/06/26 11:17:36;;;;;;;6.03;1.35;;;;;;;27.40;36.29;101671.72;5008858;28;20290;-68
2023/06/26 11:20:06;;;;;;;6.03;1.30;;;;;;;26.92;38.00;101673.41;5008538;28;20038;-68
2023/06/26 11:22:35;;;;;;;3.33;1.30;;;;;;;26.65;38.12;101681.47;4989204;28;20502;-67